sensor_id;sensor_type;location;lat;lon;timestamp;pressure;altitude;pressure_sealevel;temperature;humidity
82305;BME280;71914;47.382;8.168;2023-08-17T00:00:01;96903.84;;;20.99;66.47
82305;BME280;71914;47.382;8.168;2023-08-17T00:02:28;96905.44;;;20.93;66.81
82305;BME280;71914;47.382;8.168;2023-08-17T00:04:53;96901.53;;;20.89;66.46
82305;BME280;71914;47.382;8.168;2023-08-17T00:07:20;96901.13;;;20.85;66.57
82305;BME280;71914;47.382;8.168;2023-08-17T00:09:46;96907.06;;;20.87;66.44
82305;BME280;71914;47.382;8.168;2023-08-17T00:12:13;96907.06;;;20.87;66.67
82305;BME280;71914;47.382;8.168;2023-08-17T00:14:38;96902.38;;;20.83;66.13
82305;BME280;71914;47.382;8.168;2023-08-17T00:17:04;96903.97;;;20.84;66.17
82305;BME280;71914;47.382;8.168;2023-08-17T00:19:29;96903.78;;;20.85;66.68
82305;BME280;71914;47.382;8.168;2023-08-17T00:21:55;96902.75;;;20.86;66.46
82305;BME280;71914;47.382;8.168;2023-08-17T00:24:21;96902.75;;;20.86;66.66
82305;BME280;71914;47.382;8.168;2023-08-17T00:26:47;96901.09;;;20.79;67.15
82305;BME280;71914;47.382;8.168;2023-08-17T00:29:13;96906.63;;;20.77;66.81
82305;BME280;71914;47.382;8.168;2023-08-17T00:31:40;96907.25;;;20.79;67.04
82305;BME280;71914;47.382;8.168;2023-08-17T00:34:05;96905.16;;;20.75;66.69
82305;BME280;71914;47.382;8.168;2023-08-17T00:36:31;96908.78;;;20.67;67.35
82305;BME280;71914;47.382;8.168;2023-08-17T00:38:56;96912.66;;;20.64;67.35
82305;BME280;71914;47.382;8.168;2023-08-17T00:41:22;96906.72;;;20.62;67.94
82305;BME280;71914;47.382;8.168;2023-08-17T00:43:49;96909.16;;;20.57;68.33
82305;BME280;71914;47.382;8.168;2023-08-17T00:46:15;96909.56;;;20.54;68.04
82305;BME280;71914;47.382;8.168;2023-08-17T00:48:41;96911.56;;;20.52;67.65
82305;BME280;71914;47.382;8.168;2023-08-17T00:51:07;96911.97;;;20.49;67.92
82305;BME280;71914;47.382;8.168;2023-08-17T00:53:33;96906.66;;;20.49;67.98
82305;BME280;71914;47.382;8.168;2023-08-17T00:55:59;96902.34;;;20.48;67.90
82305;BME280;71914;47.382;8.168;2023-08-17T00:58:26;96904.38;;;20.46;68.27
82305;BME280;71914;47.382;8.168;2023-08-17T01:00:54;96907.22;;;20.44;68.16
82305;BME280;71914;47.382;8.168;2023-08-17T01:03:20;96903.75;;;20.44;68.39
82305;BME280;71914;47.382;8.168;2023-08-17T01:05:47;96902.91;;;20.43;68.11
82305;BME280;71914;47.382;8.168;2023-08-17T01:08:12;96905.78;;;20.42;68.37
82305;BME280;71914;47.382;8.168;2023-08-17T01:10:47;96907.00;;;20.39;68.07
82305;BME280;71914;47.382;8.168;2023-08-17T01:13:21;96907.97;;;20.31;68.79
82305;BME280;71914;47.382;8.168;2023-08-17T01:15:52;96910.22;;;20.28;69.00
82305;BME280;71914;47.382;8.168;2023-08-17T01:18:25;96913.44;;;20.23;69.06
82305;BME280;71914;47.382;8.168;2023-08-17T01:20:52;96912.81;;;20.21;69.01
82305;BME280;71914;47.382;8.168;2023-08-17T01:23:20;96911.19;;;20.20;69.42
82305;BME280;71914;47.382;8.168;2023-08-17T01:25:45;96903.56;;;20.17;69.21
82305;BME280;71914;47.382;8.168;2023-08-17T01:28:11;96913.19;;;20.18;69.32
82305;BME280;71914;47.382;8.168;2023-08-17T01:30:41;96911.75;;;20.15;69.23
82305;BME280;71914;47.382;8.168;2023-08-17T01:33:11;96904.97;;;20.13;69.30
82305;BME280;71914;47.382;8.168;2023-08-17T01:35:44;96904.53;;;20.09;69.40
82305;BME280;71914;47.382;8.168;2023-08-17T01:38:14;96902.28;;;20.06;69.58
82305;BME280;71914;47.382;8.168;2023-08-17T01:40:42;96900.16;;;20.01;69.86
82305;BME280;71914;47.382;8.168;2023-08-17T01:43:10;96906.53;;;20.00;69.81
82305;BME280;71914;47.382;8.168;2023-08-17T01:45:36;96900.56;;;19.98;70.15
82305;BME280;71914;47.382;8.168;2023-08-17T01:48:02;96898.75;;;19.99;70.09
82305;BME280;71914;47.382;8.168;2023-08-17T01:50:28;96902.84;;;20.01;70.16
82305;BME280;71914;47.382;8.168;2023-08-17T01:52:53;96899.38;;;20.01;70.42
82305;BME280;71914;47.382;8.168;2023-08-17T01:55:20;96900.16;;;20.01;70.16
82305;BME280;71914;47.382;8.168;2023-08-17T01:57:47;96907.16;;;20.02;70.44
82305;BME280;71914;47.382;8.168;2023-08-17T02:00:14;96909.81;;;20.02;70.08
82305;BME280;71914;47.382;8.168;2023-08-17T02:02:40;96913.72;;;20.06;69.84
82305;BME280;71914;47.382;8.168;2023-08-17T02:05:07;96904.72;;;20.07;70.08
82305;BME280;71914;47.382;8.168;2023-08-17T02:07:33;96911.25;;;20.05;70.66
82305;BME280;71914;47.382;8.168;2023-08-17T02:09:59;96912.84;;;19.99;70.76
82305;BME280;71914;47.382;8.168;2023-08-17T02:12:24;96902.63;;;19.96;70.63
82305;BME280;71914;47.382;8.168;2023-08-17T02:14:51;96904.19;;;19.90;70.97
82305;BME280;71914;47.382;8.168;2023-08-17T02:17:17;96909.50;;;19.90;70.58
82305;BME280;71914;47.382;8.168;2023-08-17T02:19:44;96906.28;;;19.95;70.60
82305;BME280;71914;47.382;8.168;2023-08-17T02:22:09;96902.63;;;19.96;70.38
82305;BME280;71914;47.382;8.168;2023-08-17T02:24:35;96904.63;;;19.94;70.18
82305;BME280;71914;47.382;8.168;2023-08-17T02:27:01;96907.03;;;19.89;70.66
82305;BME280;71914;47.382;8.168;2023-08-17T02:29:26;96901.84;;;19.81;71.06
82305;BME280;71914;47.382;8.168;2023-08-17T02:31:53;96907.91;;;19.74;70.89
82305;BME280;71914;47.382;8.168;2023-08-17T02:34:19;96912.38;;;19.67;71.17
82305;BME280;71914;47.382;8.168;2023-08-17T02:36:44;96907.41;;;19.64;71.33
82305;BME280;71914;47.382;8.168;2023-08-17T02:39:10;96908.41;;;19.63;71.23
82305;BME280;71914;47.382;8.168;2023-08-17T02:41:35;96911.47;;;19.60;71.26
82305;BME280;71914;47.382;8.168;2023-08-17T02:44:01;96903.44;;;19.53;71.98
82305;BME280;71914;47.382;8.168;2023-08-17T02:46:26;96908.94;;;19.52;72.15
82305;BME280;71914;47.382;8.168;2023-08-17T02:48:53;96903.63;;;19.52;72.15
82305;BME280;71914;47.382;8.168;2023-08-17T02:51:19;96899.72;;;19.48;72.00
82305;BME280;71914;47.382;8.168;2023-08-17T02:53:45;96902.97;;;19.50;71.95
82305;BME280;71914;47.382;8.168;2023-08-17T02:56:10;96900.13;;;19.51;72.06
82305;BME280;71914;47.382;8.168;2023-08-17T02:58:37;96898.66;;;19.49;72.00
82305;BME280;71914;47.382;8.168;2023-08-17T03:01:05;96892.53;;;19.48;72.20
82305;BME280;71914;47.382;8.168;2023-08-17T03:03:30;96894.75;;;19.45;72.25
82305;BME280;71914;47.382;8.168;2023-08-17T03:05:57;96888.81;;;19.43;72.15
82305;BME280;71914;47.382;8.168;2023-08-17T03:08:23;96883.06;;;19.39;72.17
82305;BME280;71914;47.382;8.168;2023-08-17T03:10:48;96890.81;;;19.40;72.37
82305;BME280;71914;47.382;8.168;2023-08-17T03:13:14;96883.88;;;19.39;72.25
82305;BME280;71914;47.382;8.168;2023-08-17T03:15:39;96890.22;;;19.38;72.27
82305;BME280;71914;47.382;8.168;2023-08-17T03:18:05;96888.91;;;19.34;72.17
82305;BME280;71914;47.382;8.168;2023-08-17T03:20:34;96886.47;;;19.33;72.15
82305;BME280;71914;47.382;8.168;2023-08-17T03:23:01;96888.03;;;19.27;72.48
82305;BME280;71914;47.382;8.168;2023-08-17T03:25:26;96894.56;;;19.24;72.02
82305;BME280;71914;47.382;8.168;2023-08-17T03:27:52;96892.44;;;19.20;72.55
82305;BME280;71914;47.382;8.168;2023-08-17T03:30:17;96890.91;;;19.11;72.36
82305;BME280;71914;47.382;8.168;2023-08-17T03:32:43;96884.91;;;19.02;73.04
82305;BME280;71914;47.382;8.168;2023-08-17T03:35:08;96883.47;;;18.99;73.26
82305;BME280;71914;47.382;8.168;2023-08-17T03:37:34;96892.34;;;18.91;73.19
82305;BME280;71914;47.382;8.168;2023-08-17T03:40:01;96887.03;;;18.91;73.17
82305;BME280;71914;47.382;8.168;2023-08-17T03:42:26;96890.50;;;18.92;73.55
82305;BME280;71914;47.382;8.168;2023-08-17T03:44:52;96894.63;;;18.95;73.47
82305;BME280;71914;47.382;8.168;2023-08-17T03:47:18;96896.09;;;18.97;73.41
82305;BME280;71914;47.382;8.168;2023-08-17T03:49:43;96894.63;;;18.95;73.56
82305;BME280;71914;47.382;8.168;2023-08-17T03:52:09;96901.13;;;18.92;73.97
82305;BME280;71914;47.382;8.168;2023-08-17T03:54:35;96903.59;;;18.94;73.99
82305;BME280;71914;47.382;8.168;2023-08-17T03:57:02;96896.28;;;18.96;73.89
82305;BME280;71914;47.382;8.168;2023-08-17T03:59:28;96902.66;;;18.86;74.47
82305;BME280;71914;47.382;8.168;2023-08-17T04:01:53;96901.25;;;18.39;76.50
82305;BME280;71914;47.382;8.168;2023-08-17T04:04:19;96896.03;;;17.92;78.16
82305;BME280;71914;47.382;8.168;2023-08-17T04:06:45;96906.44;;;17.56;79.57
82305;BME280;71914;47.382;8.168;2023-08-17T04:09:10;96910.84;;;17.40;80.50
82305;BME280;71914;47.382;8.168;2023-08-17T04:11:36;96911.84;;;17.39;81.29
82305;BME280;71914;47.382;8.168;2023-08-17T04:14:05;96917.19;;;17.31;81.45
82305;BME280;71914;47.382;8.168;2023-08-17T04:16:31;96906.06;;;17.36;81.49
82305;BME280;71914;47.382;8.168;2023-08-17T04:18:57;96912.28;;;17.66;80.47
82305;BME280;71914;47.382;8.168;2023-08-17T04:21:23;96906.63;;;17.92;79.28
82305;BME280;71914;47.382;8.168;2023-08-17T04:23:48;96909.72;;;18.19;78.16
82305;BME280;71914;47.382;8.168;2023-08-17T04:26:14;96909.19;;;18.39;77.19
82305;BME280;71914;47.382;8.168;2023-08-17T04:28:39;96908.28;;;18.47;76.82
82305;BME280;71914;47.382;8.168;2023-08-17T04:31:06;96910.56;;;18.50;76.17
82305;BME280;71914;47.382;8.168;2023-08-17T04:33:32;96912.13;;;18.59;75.86
82305;BME280;71914;47.382;8.168;2023-08-17T04:35:57;96916.31;;;18.68;75.56
82305;BME280;71914;47.382;8.168;2023-08-17T04:38:24;96915.31;;;18.69;75.23
82305;BME280;71914;47.382;8.168;2023-08-17T04:40:50;96915.59;;;18.74;74.80
82305;BME280;71914;47.382;8.168;2023-08-17T04:43:15;96905.44;;;18.78;75.14
82305;BME280;71914;47.382;8.168;2023-08-17T04:45:41;96909.72;;;18.79;74.88
82305;BME280;71914;47.382;8.168;2023-08-17T04:48:08;96911.38;;;18.80;74.78
82305;BME280;71914;47.382;8.168;2023-08-17T04:50:35;96908.44;;;18.75;74.97
82305;BME280;71914;47.382;8.168;2023-08-17T04:53:01;96916.59;;;18.73;75.54
82305;BME280;71914;47.382;8.168;2023-08-17T04:55:28;96916.22;;;18.77;75.41
82305;BME280;71914;47.382;8.168;2023-08-17T04:57:53;96915.03;;;18.79;75.43
82305;BME280;71914;47.382;8.168;2023-08-17T05:00:19;96915.47;;;18.83;75.49
82305;BME280;71914;47.382;8.168;2023-08-17T05:02:50;96923.72;;;18.88;75.58
82305;BME280;71914;47.382;8.168;2023-08-17T05:05:21;96911.41;;;18.95;75.07
82305;BME280;71914;47.382;8.168;2023-08-17T05:07:47;96918.78;;;19.00;74.64
82305;BME280;71914;47.382;8.168;2023-08-17T05:10:15;96916.41;;;19.05;74.84
82305;BME280;71914;47.382;8.168;2023-08-17T05:12:41;96917.84;;;19.07;75.17
82305;BME280;71914;47.382;8.168;2023-08-17T05:15:07;96920.97;;;19.11;74.70
82305;BME280;71914;47.382;8.168;2023-08-17T05:17:33;96916.75;;;19.17;75.20
82305;BME280;71914;47.382;8.168;2023-08-17T05:19:58;96914.34;;;19.22;74.75
82305;BME280;71914;47.382;8.168;2023-08-17T05:22:27;96917.25;;;19.27;74.85
82305;BME280;71914;47.382;8.168;2023-08-17T05:24:53;96915.75;;;19.39;74.31
82305;BME280;71914;47.382;8.168;2023-08-17T05:27:18;96920.06;;;19.40;74.07
82305;BME280;71914;47.382;8.168;2023-08-17T05:29:44;96925.25;;;19.49;73.87
82305;BME280;71914;47.382;8.168;2023-08-17T05:32:10;96935.72;;;19.50;74.09
82305;BME280;71914;47.382;8.168;2023-08-17T05:34:35;96926.97;;;19.56;74.00
82305;BME280;71914;47.382;8.168;2023-08-17T05:37:06;96930.88;;;19.61;73.97
82305;BME280;71914;47.382;8.168;2023-08-17T05:39:36;96928.47;;;19.66;73.44
82305;BME280;71914;47.382;8.168;2023-08-17T05:42:01;96930.00;;;19.75;73.82
82305;BME280;71914;47.382;8.168;2023-08-17T05:44:27;96939.25;;;19.79;73.01
82305;BME280;71914;47.382;8.168;2023-08-17T05:46:53;96935.75;;;19.79;73.12
82305;BME280;71914;47.382;8.168;2023-08-17T05:49:18;96938.81;;;19.76;73.17
82305;BME280;71914;47.382;8.168;2023-08-17T05:51:43;96941.28;;;19.77;73.39
82305;BME280;71914;47.382;8.168;2023-08-17T05:54:09;96946.69;;;19.84;73.55
82305;BME280;71914;47.382;8.168;2023-08-17T05:56:36;96948.84;;;19.95;72.98
82305;BME280;71914;47.382;8.168;2023-08-17T05:59:02;96939.91;;;20.03;72.55
82305;BME280;71914;47.382;8.168;2023-08-17T06:01:27;96945.47;;;20.08;72.33
82305;BME280;71914;47.382;8.168;2023-08-17T06:03:53;96943.22;;;20.12;72.01
82305;BME280;71914;47.382;8.168;2023-08-17T06:06:18;96949.00;;;20.15;71.96
82305;BME280;71914;47.382;8.168;2023-08-17T06:08:44;96935.28;;;20.18;71.95
82305;BME280;71914;47.382;8.168;2023-08-17T06:11:10;96945.38;;;20.23;71.42
82305;BME280;71914;47.382;8.168;2023-08-17T06:13:37;96950.94;;;20.28;71.66
82305;BME280;71914;47.382;8.168;2023-08-17T06:16:02;96953.44;;;20.36;70.49
82305;BME280;71914;47.382;8.168;2023-08-17T06:18:29;96950.00;;;20.43;70.80
82305;BME280;71914;47.382;8.168;2023-08-17T06:20:54;96951.91;;;20.49;71.02
82305;BME280;71914;47.382;8.168;2023-08-17T06:23:20;96953.75;;;20.55;70.83
82305;BME280;71914;47.382;8.168;2023-08-17T06:25:46;96960.41;;;20.66;70.54
82305;BME280;71914;47.382;8.168;2023-08-17T06:28:11;96965.97;;;20.71;70.59
82305;BME280;71914;47.382;8.168;2023-08-17T06:30:38;96970.31;;;20.79;70.57
82305;BME280;71914;47.382;8.168;2023-08-17T06:33:04;96968.69;;;20.78;70.76
82305;BME280;71914;47.382;8.168;2023-08-17T06:35:30;96968.88;;;20.76;70.40
82305;BME280;71914;47.382;8.168;2023-08-17T06:37:55;96969.31;;;20.80;70.41
82305;BME280;71914;47.382;8.168;2023-08-17T06:40:23;96971.19;;;20.86;70.23
82305;BME280;71914;47.382;8.168;2023-08-17T06:42:48;96974.53;;;20.95;69.54
82305;BME280;71914;47.382;8.168;2023-08-17T06:45:14;96980.94;;;21.07;69.53
82305;BME280;71914;47.382;8.168;2023-08-17T06:47:45;96973.38;;;21.11;69.80
82305;BME280;71914;47.382;8.168;2023-08-17T06:50:10;96970.06;;;21.09;69.20
82305;BME280;71914;47.382;8.168;2023-08-17T06:52:36;96976.22;;;21.09;68.76
82305;BME280;71914;47.382;8.168;2023-08-17T06:55:02;96959.44;;;21.15;70.12
82305;BME280;71914;47.382;8.168;2023-08-17T06:57:27;96957.44;;;21.24;69.45
82305;BME280;71914;47.382;8.168;2023-08-17T06:59:54;96961.94;;;21.23;69.02
82305;BME280;71914;47.382;8.168;2023-08-17T07:02:20;96967.69;;;21.27;69.32
82305;BME280;71914;47.382;8.168;2023-08-17T07:04:47;96961.34;;;21.28;69.36
82305;BME280;71914;47.382;8.168;2023-08-17T07:07:12;96964.81;;;21.29;68.88
82305;BME280;71914;47.382;8.168;2023-08-17T07:09:39;96974.47;;;21.36;68.85
82305;BME280;71914;47.382;8.168;2023-08-17T07:12:05;96968.75;;;21.39;69.04
82305;BME280;71914;47.382;8.168;2023-08-17T07:14:30;96971.44;;;21.39;67.09
82305;BME280;71914;47.382;8.168;2023-08-17T07:16:56;96959.94;;;21.46;67.18
82305;BME280;71914;47.382;8.168;2023-08-17T07:19:22;96965.47;;;21.37;66.00
82305;BME280;71914;47.382;8.168;2023-08-17T07:21:48;96969.88;;;21.65;67.02
82305;BME280;71914;47.382;8.168;2023-08-17T07:24:15;96974.19;;;21.73;67.00
82305;BME280;71914;47.382;8.168;2023-08-17T07:26:44;96975.44;;;21.77;66.27
82305;BME280;71914;47.382;8.168;2023-08-17T07:29:12;96979.34;;;21.81;66.94
82305;BME280;71914;47.382;8.168;2023-08-17T07:31:38;96982.25;;;22.00;66.93
82305;BME280;71914;47.382;8.168;2023-08-17T07:34:03;96980.81;;;22.11;66.91
82305;BME280;71914;47.382;8.168;2023-08-17T07:36:29;96984.72;;;22.15;65.54
82305;BME280;71914;47.382;8.168;2023-08-17T07:38:56;96981.84;;;22.23;65.42
82305;BME280;71914;47.382;8.168;2023-08-17T07:41:22;96978.34;;;22.29;66.63
82305;BME280;71914;47.382;8.168;2023-08-17T07:43:47;96987.22;;;22.50;66.37
82305;BME280;71914;47.382;8.168;2023-08-17T07:46:13;96992.13;;;22.53;65.29
82305;BME280;71914;47.382;8.168;2023-08-17T07:48:38;96993.78;;;22.54;64.72
82305;BME280;71914;47.382;8.168;2023-08-17T07:51:04;96995.19;;;22.63;64.51
82305;BME280;71914;47.382;8.168;2023-08-17T07:53:29;96991.72;;;22.69;64.74
82305;BME280;71914;47.382;8.168;2023-08-17T07:55:56;96995.59;;;22.74;63.11
82305;BME280;71914;47.382;8.168;2023-08-17T07:58:22;96990.66;;;22.84;63.93
82305;BME280;71914;47.382;8.168;2023-08-17T08:00:48;96996.81;;;22.84;63.29
82305;BME280;71914;47.382;8.168;2023-08-17T08:03:14;96991.69;;;22.76;63.10
82305;BME280;71914;47.382;8.168;2023-08-17T08:05:40;97001.94;;;22.79;63.69
82305;BME280;71914;47.382;8.168;2023-08-17T08:08:06;96996.81;;;22.78;63.87
82305;BME280;71914;47.382;8.168;2023-08-17T08:10:31;97002.38;;;22.83;64.51
82305;BME280;71914;47.382;8.168;2023-08-17T08:13:00;97003.53;;;23.07;63.30
82305;BME280;71914;47.382;8.168;2023-08-17T08:15:25;97005.56;;;23.25;62.33
82305;BME280;71914;47.382;8.168;2023-08-17T08:17:51;97013.66;;;23.50;62.52
82305;BME280;71914;47.382;8.168;2023-08-17T08:20:16;97010.00;;;23.45;62.66
82305;BME280;71914;47.382;8.168;2023-08-17T08:22:41;97010.06;;;23.31;63.17
82305;BME280;71914;47.382;8.168;2023-08-17T08:25:07;97016.19;;;23.38;63.14
82305;BME280;71914;47.382;8.168;2023-08-17T08:27:33;97013.69;;;23.44;62.43
82305;BME280;71914;47.382;8.168;2023-08-17T08:30:03;97014.72;;;23.43;62.74
82305;BME280;71914;47.382;8.168;2023-08-17T08:32:28;97011.44;;;23.86;62.35
82305;BME280;71914;47.382;8.168;2023-08-17T08:34:54;97014.94;;;23.93;61.65
82305;BME280;71914;47.382;8.168;2023-08-17T08:37:19;97017.13;;;24.03;62.00
82305;BME280;71914;47.382;8.168;2023-08-17T08:39:48;97018.31;;;24.39;61.43
82305;BME280;71914;47.382;8.168;2023-08-17T08:42:14;97023.50;;;24.34;60.83
82305;BME280;71914;47.382;8.168;2023-08-17T08:44:40;97030.63;;;24.15;61.40
82305;BME280;71914;47.382;8.168;2023-08-17T08:47:07;97025.13;;;24.35;61.05
82305;BME280;71914;47.382;8.168;2023-08-17T08:49:36;97034.34;;;24.14;61.24
82305;BME280;71914;47.382;8.168;2023-08-17T08:52:07;97035.91;;;24.28;60.13
82305;BME280;71914;47.382;8.168;2023-08-17T08:54:35;97031.69;;;24.39;60.93
82305;BME280;71914;47.382;8.168;2023-08-17T08:57:03;97037.09;;;24.32;60.47
82305;BME280;71914;47.382;8.168;2023-08-17T08:59:30;97036.63;;;25.11;59.54
82305;BME280;71914;47.382;8.168;2023-08-17T09:01:57;97040.78;;;25.63;57.29
82305;BME280;71914;47.382;8.168;2023-08-17T09:04:25;97041.88;;;25.74;55.40
82305;BME280;71914;47.382;8.168;2023-08-17T09:06:51;97037.25;;;25.81;56.25
82305;BME280;71914;47.382;8.168;2023-08-17T09:09:16;97039.88;;;25.32;57.17
82305;BME280;71914;47.382;8.168;2023-08-17T09:11:43;97028.59;;;25.48;56.73
82305;BME280;71914;47.382;8.168;2023-08-17T09:14:08;97026.44;;;25.57;55.97
82305;BME280;71914;47.382;8.168;2023-08-17T09:16:34;97030.06;;;25.93;54.52
82305;BME280;71914;47.382;8.168;2023-08-17T09:19:03;97024.78;;;26.17;53.89
82305;BME280;71914;47.382;8.168;2023-08-17T09:21:32;97030.91;;;25.94;54.60
82305;BME280;71914;47.382;8.168;2023-08-17T09:23:58;97035.72;;;26.04;55.10
82305;BME280;71914;47.382;8.168;2023-08-17T09:26:24;97033.56;;;26.12;53.12
82305;BME280;71914;47.382;8.168;2023-08-17T09:28:49;97038.19;;;26.05;50.82
82305;BME280;71914;47.382;8.168;2023-08-17T09:31:15;97028.41;;;25.92;52.83
82305;BME280;71914;47.382;8.168;2023-08-17T09:33:41;97038.63;;;26.02;51.96
82305;BME280;71914;47.382;8.168;2023-08-17T09:36:06;97037.94;;;26.07;52.05
82305;BME280;71914;47.382;8.168;2023-08-17T09:38:33;97036.81;;;25.84;51.97
82305;BME280;71914;47.382;8.168;2023-08-17T09:40:58;97038.91;;;26.12;51.58
82305;BME280;71914;47.382;8.168;2023-08-17T09:43:25;97047.72;;;26.31;51.92
82305;BME280;71914;47.382;8.168;2023-08-17T09:45:54;97052.28;;;26.43;50.63
82305;BME280;71914;47.382;8.168;2023-08-17T09:48:20;97049.25;;;26.51;49.66
82305;BME280;71914;47.382;8.168;2023-08-17T09:50:47;97042.06;;;26.63;48.44
82305;BME280;71914;47.382;8.168;2023-08-17T09:53:13;97052.78;;;26.51;49.89
82305;BME280;71914;47.382;8.168;2023-08-17T09:55:40;97042.25;;;26.50;50.39
82305;BME280;71914;47.382;8.168;2023-08-17T09:58:06;97043.19;;;26.32;49.74
82305;BME280;71914;47.382;8.168;2023-08-17T10:00:33;97042.59;;;26.42;50.51
82305;BME280;71914;47.382;8.168;2023-08-17T10:03:02;97040.16;;;26.64;50.09
82305;BME280;71914;47.382;8.168;2023-08-17T10:05:30;97035.69;;;26.46;49.21
82305;BME280;71914;47.382;8.168;2023-08-17T10:07:57;97033.47;;;26.31;50.18
82305;BME280;71914;47.382;8.168;2023-08-17T10:10:26;97031.94;;;26.23;50.88
82305;BME280;71914;47.382;8.168;2023-08-17T10:13:00;97029.47;;;26.10;51.63
82305;BME280;71914;47.382;8.168;2023-08-17T10:15:33;97027.25;;;26.30;52.02
82305;BME280;71914;47.382;8.168;2023-08-17T10:18:04;97030.72;;;26.61;51.62
82305;BME280;71914;47.382;8.168;2023-08-17T10:20:35;97025.59;;;26.72;50.89
82305;BME280;71914;47.382;8.168;2023-08-17T10:23:16;97020.44;;;27.17;50.55
82305;BME280;71914;47.382;8.168;2023-08-17T10:25:43;97015.19;;;27.11;49.53
82305;BME280;71914;47.382;8.168;2023-08-17T10:28:11;97012.09;;;27.43;49.01
82305;BME280;71914;47.382;8.168;2023-08-17T10:30:38;97014.34;;;27.63;48.17
82305;BME280;71914;47.382;8.168;2023-08-17T10:33:05;97008.88;;;27.87;49.22
82305;BME280;71914;47.382;8.168;2023-08-17T10:35:31;97010.09;;;27.96;46.08
82305;BME280;71914;47.382;8.168;2023-08-17T10:37:58;96998.94;;;27.87;47.16
82305;BME280;71914;47.382;8.168;2023-08-17T10:40:27;97005.69;;;28.02;46.58
82305;BME280;71914;47.382;8.168;2023-08-17T10:42:55;96995.22;;;28.39;46.43
82305;BME280;71914;47.382;8.168;2023-08-17T10:45:29;96995.00;;;28.75;45.63
82305;BME280;71914;47.382;8.168;2023-08-17T10:48:29;96988.06;;;28.79;44.33
82305;BME280;71914;47.382;8.168;2023-08-17T10:51:03;96991.59;;;29.02;43.57
82305;BME280;71914;47.382;8.168;2023-08-17T10:53:34;96984.63;;;29.06;42.58
82305;BME280;71914;47.382;8.168;2023-08-17T10:56:00;96980.44;;;29.15;44.32
82305;BME280;71914;47.382;8.168;2023-08-17T10:58:30;96972.09;;;29.17;43.11
82305;BME280;71914;47.382;8.168;2023-08-17T11:00:58;96971.91;;;29.01;44.41
82305;BME280;71914;47.382;8.168;2023-08-17T11:03:24;96970.81;;;29.02;44.07
82305;BME280;71914;47.382;8.168;2023-08-17T11:05:51;96967.63;;;28.83;44.34
82305;BME280;71914;47.382;8.168;2023-08-17T11:08:22;96966.72;;;28.77;46.58
82305;BME280;71914;47.382;8.168;2023-08-17T11:10:48;96969.59;;;28.71;43.75
82305;BME280;71914;47.382;8.168;2023-08-17T11:13:22;96961.94;;;28.45;44.00
82305;BME280;71914;47.382;8.168;2023-08-17T11:15:48;96962.97;;;28.44;44.23
82305;BME280;71914;47.382;8.168;2023-08-17T11:18:16;96961.38;;;28.43;42.46
82305;BME280;71914;47.382;8.168;2023-08-17T11:20:42;96960.78;;;28.41;44.27
82305;BME280;71914;47.382;8.168;2023-08-17T11:23:08;96952.78;;;28.29;45.63
82305;BME280;71914;47.382;8.168;2023-08-17T11:25:34;96955.97;;;28.43;45.42
82305;BME280;71914;47.382;8.168;2023-08-17T11:28:00;96949.84;;;28.48;44.86
82305;BME280;71914;47.382;8.168;2023-08-17T11:30:29;96946.72;;;28.56;44.95
82305;BME280;71914;47.382;8.168;2023-08-17T11:32:56;96947.81;;;28.38;44.28
82305;BME280;71914;47.382;8.168;2023-08-17T11:35:23;96940.34;;;28.62;44.24
82305;BME280;71914;47.382;8.168;2023-08-17T11:37:48;96941.59;;;28.94;43.79
82305;BME280;71914;47.382;8.168;2023-08-17T11:40:14;96930.06;;;28.98;42.96
82305;BME280;71914;47.382;8.168;2023-08-17T11:42:41;96924.28;;;28.90;41.75
82305;BME280;71914;47.382;8.168;2023-08-17T11:45:07;96927.63;;;28.75;41.94
82305;BME280;71914;47.382;8.168;2023-08-17T11:47:36;96929.91;;;28.66;42.09
82305;BME280;71914;47.382;8.168;2023-08-17T11:50:03;96930.94;;;28.82;41.96
82305;BME280;71914;47.382;8.168;2023-08-17T11:52:32;96932.78;;;28.98;41.13
82305;BME280;71914;47.382;8.168;2023-08-17T11:54:58;96937.38;;;29.25;39.75
82305;BME280;71914;47.382;8.168;2023-08-17T11:57:23;96933.78;;;29.37;39.98
82305;BME280;71914;47.382;8.168;2023-08-17T11:59:52;96936.38;;;29.54;38.86
82305;BME280;71914;47.382;8.168;2023-08-17T12:02:18;96931.22;;;29.79;38.93
82305;BME280;71914;47.382;8.168;2023-08-17T12:04:44;96931.97;;;29.97;38.98
82305;BME280;71914;47.382;8.168;2023-08-17T12:07:09;96929.31;;;29.75;39.75
82305;BME280;71914;47.382;8.168;2023-08-17T12:09:36;96935.66;;;29.36;39.10
82305;BME280;71914;47.382;8.168;2023-08-17T12:12:02;96922.09;;;29.31;39.90
82305;BME280;71914;47.382;8.168;2023-08-17T12:14:28;96922.88;;;29.26;39.65
82305;BME280;71914;47.382;8.168;2023-08-17T12:16:54;96925.91;;;29.35;39.79
82305;BME280;71914;47.382;8.168;2023-08-17T12:19:20;96926.69;;;29.30;41.01
82305;BME280;71914;47.382;8.168;2023-08-17T12:21:48;96914.63;;;29.16;40.56
82305;BME280;71914;47.382;8.168;2023-08-17T12:24:13;96918.50;;;29.25;41.64
82305;BME280;71914;47.382;8.168;2023-08-17T12:26:43;96918.59;;;29.08;40.23
82305;BME280;71914;47.382;8.168;2023-08-17T12:29:09;96914.56;;;29.11;40.73
82305;BME280;71914;47.382;8.168;2023-08-17T12:31:37;96914.69;;;29.21;39.72
82305;BME280;71914;47.382;8.168;2023-08-17T12:34:03;96921.34;;;29.36;41.63
82305;BME280;71914;47.382;8.168;2023-08-17T12:36:33;96916.31;;;29.22;40.10
82305;BME280;71914;47.382;8.168;2023-08-17T12:39:00;96918.59;;;29.30;40.90
82305;BME280;71914;47.382;8.168;2023-08-17T12:41:26;96928.38;;;29.37;41.19
82305;BME280;71914;47.382;8.168;2023-08-17T12:43:53;96928.94;;;29.39;40.53
82305;BME280;71914;47.382;8.168;2023-08-17T12:46:24;96922.72;;;29.38;40.14
82305;BME280;71914;47.382;8.168;2023-08-17T12:48:49;96925.09;;;29.35;39.96
82305;BME280;71914;47.382;8.168;2023-08-17T12:51:15;96918.34;;;29.32;41.46
82305;BME280;71914;47.382;8.168;2023-08-17T12:53:41;96924.72;;;29.26;39.33
82305;BME280;71914;47.382;8.168;2023-08-17T12:56:06;96923.84;;;29.20;40.26